createdAt,value
2023-09-06T00:01:00.841Z,15.23
2023-09-06T00:06:02.669Z,15.15
2023-09-06T00:11:07.419Z,15.14
2023-09-06T00:16:09.096Z,15.07
2023-09-06T00:21:10.856Z,15.02
2023-09-06T00:26:12.560Z,14.87
2023-09-06T00:31:14.437Z,14.77
2023-09-06T00:36:16.189Z,14.82
2023-09-06T00:41:18.848Z,14.81
2023-09-06T00:46:20.899Z,14.74
2023-09-06T00:51:22.646Z,14.72
2023-09-06T00:56:24.297Z,14.68
2023-09-06T01:01:26.160Z,14.69
2023-09-06T01:06:29.774Z,14.66
2023-09-06T01:11:33.136Z,14.62
2023-09-06T01:16:41.575Z,14.52
2023-09-06T01:21:49.927Z,14.43
2023-09-06T01:26:51.858Z,14.34
2023-09-06T01:31:53.659Z,14.31
2023-09-06T01:36:55.450Z,14.24
2023-09-06T01:41:57.249Z,14.23
2023-09-06T01:46:59.020Z,14.17
2023-09-06T01:52:01.135Z,14.13
2023-09-06T01:57:02.852Z,14.07
2023-09-06T02:02:05.611Z,14.01
2023-09-06T02:07:07.349Z,14.01
2023-09-06T02:12:09.143Z,14.00
2023-09-06T02:17:10.878Z,13.96
2023-09-06T02:22:12.757Z,13.90
2023-09-06T02:27:14.915Z,13.82
2023-09-06T02:32:19.940Z,13.83
2023-09-06T02:37:21.670Z,13.78
2023-09-06T02:42:23.642Z,13.71
2023-09-06T02:47:29.875Z,13.70
2023-09-06T02:52:34.305Z,13.69
2023-09-06T02:57:36.187Z,13.65
2023-09-06T03:02:37.897Z,13.62
2023-09-06T03:07:41.618Z,13.52
2023-09-06T03:12:45.099Z,13.43
2023-09-06T03:17:48.308Z,13.34
2023-09-06T03:22:51.400Z,13.29
2023-09-06T03:28:01.437Z,13.30
2023-09-06T03:33:07.463Z,13.19
2023-09-06T03:38:12.192Z,13.14
2023-09-06T03:43:17.152Z,13.19
2023-09-06T03:48:21.799Z,13.11
2023-09-06T03:53:27.772Z,13.10
2023-09-06T03:58:30.626Z,13.03
2023-09-06T04:03:33.535Z,12.92
2023-09-06T04:08:37.681Z,12.90
2023-09-06T04:13:40.488Z,12.85
2023-09-06T04:18:43.615Z,12.84
2023-09-06T04:23:46.041Z,12.78
2023-09-06T04:28:51.188Z,12.71
2023-09-06T04:33:55.123Z,12.73
2023-09-06T04:38:59.906Z,12.74
2023-09-06T04:44:04.089Z,12.72
2023-09-06T04:49:06.124Z,12.79
2023-09-06T04:54:10.785Z,12.84
2023-09-06T04:59:14.003Z,12.86
2023-09-06T05:04:16.173Z,12.90
2023-09-06T05:09:20.549Z,12.98
2023-09-06T05:14:22.699Z,13.06
2023-09-06T05:19:28.785Z,13.16
2023-09-06T05:24:31.234Z,13.30
2023-09-06T05:29:33.849Z,13.43
2023-09-06T05:34:35.914Z,13.60
2023-09-06T05:39:41.174Z,13.85
2023-09-06T05:44:44.165Z,14.13
2023-09-06T05:49:48.025Z,14.44
2023-09-06T05:54:53.869Z,14.75
2023-09-06T05:59:58.899Z,15.10
2023-09-06T06:05:00.683Z,15.86
2023-09-06T06:10:02.569Z,16.67
2023-09-06T06:15:04.642Z,17.62
2023-09-06T06:20:12.262Z,18.10
2023-09-06T06:25:14.277Z,18.70
2023-09-06T06:30:16.100Z,18.88
2023-09-06T06:35:17.798Z,18.66
2023-09-06T06:40:19.597Z,19.17
2023-09-06T06:45:21.301Z,19.57
2023-09-06T06:50:23.550Z,20.37
2023-09-06T06:55:25.361Z,20.18
2023-09-06T07:00:35.607Z,20.02
2023-09-06T07:05:37.333Z,20.03
2023-09-06T07:10:39.058Z,19.61
2023-09-06T07:15:41.274Z,19.67
2023-09-06T07:20:43.544Z,20.31
2023-09-06T07:25:45.972Z,20.42
2023-09-06T07:30:47.663Z,20.53
2023-09-06T07:35:49.291Z,20.36
2023-09-06T07:41:04.648Z,19.89
2023-09-06T07:46:11.145Z,20.00
2023-09-06T07:51:13.425Z,20.01
2023-09-06T07:56:15.156Z,20.15
2023-09-06T08:01:19.460Z,20.40
2023-09-06T08:06:21.611Z,20.38
2023-09-06T08:11:23.444Z,20.65
2023-09-06T08:16:25.236Z,20.95
2023-09-06T08:21:27.106Z,21.22
2023-09-06T08:26:29.601Z,21.35
2023-09-06T08:31:31.456Z,21.64
2023-09-06T08:36:33.192Z,21.69
2023-09-06T08:41:35.003Z,21.89
2023-09-06T08:46:42.730Z,21.85
2023-09-06T08:51:44.709Z,22.14
2023-09-06T08:56:46.697Z,22.38
2023-09-06T09:01:48.504Z,22.53
2023-09-06T09:06:50.342Z,22.73
2023-09-06T09:11:53.165Z,22.88
2023-09-06T09:16:59.232Z,22.91
2023-09-06T09:22:00.950Z,23.08
2023-09-06T09:27:04.168Z,23.32
2023-09-06T09:32:06.128Z,23.49
2023-09-06T09:37:09.655Z,23.62
2023-09-06T09:42:11.943Z,23.76
2023-09-06T09:47:35.062Z,23.93
2023-09-06T09:52:37.337Z,23.95
2023-09-06T09:57:40.125Z,24.09
2023-09-06T10:02:47.017Z,24.24
2023-09-06T10:07:50.071Z,24.27
2023-09-06T10:12:53.229Z,24.47
2023-09-06T10:17:58.941Z,24.56
2023-09-06T10:23:01.292Z,24.68
2023-09-06T10:28:03.046Z,24.73
2023-09-06T10:33:05.034Z,24.90
2023-09-06T10:38:08.951Z,25.09
2023-09-06T10:43:11.438Z,25.23
2023-09-06T10:48:13.390Z,25.24
2023-09-06T10:53:20.160Z,25.27
2023-09-06T10:58:25.040Z,25.52
2023-09-06T11:03:33.148Z,25.42
2023-09-06T11:08:35.037Z,25.57
2023-09-06T11:13:38.370Z,25.61
2023-09-06T11:18:51.362Z,25.62
2023-09-06T11:23:54.886Z,25.59
2023-09-06T11:29:06.386Z,25.71
2023-09-06T11:34:10.457Z,25.71
2023-09-06T11:39:20.029Z,25.74
2023-09-06T11:44:24.521Z,25.89
2023-09-06T11:49:27.180Z,25.96
2023-09-06T11:54:33.009Z,26.09
2023-09-06T11:59:34.771Z,26.19
2023-09-06T12:04:36.579Z,26.20
2023-09-06T12:09:38.305Z,26.12
2023-09-06T12:14:43.806Z,26.21
2023-09-06T12:19:45.794Z,26.16
2023-09-06T12:24:48.758Z,26.13
2023-09-06T12:29:50.680Z,26.16
2023-09-06T12:34:53.750Z,26.25
2023-09-06T12:39:55.853Z,26.28
2023-09-06T12:44:57.619Z,26.28
2023-09-06T12:50:01.045Z,26.28
2023-09-06T12:55:05.894Z,26.29
2023-09-06T13:00:08.778Z,26.32
2023-09-06T13:05:11.527Z,26.29
2023-09-06T13:10:13.843Z,26.27
2023-09-06T13:15:15.605Z,26.44
2023-09-06T13:20:17.343Z,26.46
2023-09-06T13:25:19.531Z,26.46
2023-09-06T13:30:21.580Z,26.40
2023-09-06T13:35:23.626Z,26.41
2023-09-06T13:40:25.399Z,26.46
2023-09-06T13:45:30.111Z,26.52
2023-09-06T13:50:32.334Z,26.58
2023-09-06T13:55:34.096Z,26.40
2023-09-06T14:00:35.886Z,26.37
2023-09-06T14:05:38.282Z,26.46
2023-09-06T14:10:40.069Z,26.45
2023-09-06T14:15:41.782Z,26.28
2023-09-06T14:20:43.563Z,26.26
2023-09-06T14:25:45.304Z,26.47
2023-09-06T14:30:47.042Z,26.63
2023-09-06T14:35:48.684Z,26.55
2023-09-06T14:40:50.407Z,26.50
2023-09-06T14:45:52.258Z,26.52
2023-09-06T14:51:04.659Z,26.50
2023-09-06T14:56:07.243Z,26.48
2023-09-06T15:01:09.869Z,26.38
2023-09-06T15:06:13.793Z,26.43
2023-09-06T15:11:15.481Z,26.33
2023-09-06T15:16:17.252Z,26.37
2023-09-06T15:21:18.944Z,26.38
2023-09-06T15:26:22.423Z,26.41
2023-09-06T15:31:25.318Z,26.32
2023-09-06T15:36:31.223Z,26.21
2023-09-06T15:41:33.762Z,26.23
2023-09-06T15:46:36.685Z,26.27
2023-09-06T15:51:38.497Z,26.29
2023-09-06T15:56:40.357Z,26.04
2023-09-06T16:01:42.925Z,25.93
2023-09-06T16:06:44.727Z,25.98
2023-09-06T16:11:46.404Z,26.08
2023-09-06T16:16:48.164Z,26.07
2023-09-06T16:21:49.904Z,25.91
2023-09-06T16:26:55.962Z,25.71
2023-09-06T16:31:57.872Z,25.69
2023-09-06T16:37:00.066Z,25.78
2023-09-06T16:42:02.306Z,25.60
2023-09-06T16:47:06.108Z,25.47
2023-09-06T16:52:09.067Z,25.51
2023-09-06T16:57:10.960Z,25.41
2023-09-06T17:02:12.846Z,25.29
2023-09-06T17:07:14.869Z,25.09
2023-09-06T17:12:16.560Z,25.00
2023-09-06T17:17:20.237Z,24.95
2023-09-06T17:22:22.051Z,24.91
2023-09-06T17:27:23.771Z,24.80
2023-09-06T17:32:27.064Z,24.64
2023-09-06T17:37:29.124Z,24.52
2023-09-06T17:42:32.545Z,24.41
2023-09-06T17:47:34.540Z,24.29
2023-09-06T17:52:39.591Z,24.15
2023-09-06T17:57:42.890Z,24.00
2023-09-06T18:02:45.480Z,23.85
2023-09-06T18:07:47.775Z,23.77
2023-09-06T18:12:49.525Z,23.62
2023-09-06T18:17:52.520Z,23.38
2023-09-06T18:22:55.025Z,23.15
2023-09-06T18:27:56.775Z,22.98
2023-09-06T18:32:58.518Z,22.92
2023-09-06T18:38:00.273Z,22.82
2023-09-06T18:43:03.623Z,22.73
2023-09-06T18:48:08.409Z,22.64
2023-09-06T18:53:10.832Z,22.51
2023-09-06T18:58:12.853Z,22.25
2023-09-06T19:03:15.099Z,21.98
2023-09-06T19:08:17.514Z,21.72
2023-09-06T19:13:20.083Z,21.47
2023-09-06T19:18:21.750Z,21.24
2023-09-06T19:23:23.536Z,21.02
2023-09-06T19:28:25.511Z,20.85
2023-09-06T19:33:27.958Z,20.68
2023-09-06T19:38:31.334Z,20.61
2023-09-06T19:43:33.266Z,20.58
2023-09-06T19:48:41.194Z,20.60
2023-09-06T19:53:49.080Z,20.62
2023-09-06T19:58:54.283Z,20.64
2023-09-06T20:03:56.063Z,20.61
2023-09-06T20:08:59.094Z,20.52
2023-09-06T20:14:01.274Z,20.39
2023-09-06T20:19:03.529Z,20.27
2023-09-06T20:24:05.546Z,20.09
2023-09-06T20:29:09.817Z,19.95
2023-09-06T20:34:11.720Z,19.80
2023-09-06T20:39:13.705Z,19.66
2023-09-06T20:44:15.382Z,19.52
2023-09-06T20:49:17.731Z,19.36
2023-09-06T20:54:19.463Z,19.23
2023-09-06T20:59:21.209Z,19.10
2023-09-06T21:04:23.010Z,18.99
2023-09-06T21:09:25.074Z,18.87
2023-09-06T21:14:26.742Z,18.80
2023-09-06T21:19:30.127Z,18.74
2023-09-06T21:24:32.290Z,18.69
2023-09-06T21:29:33.968Z,18.64
2023-09-06T21:34:35.702Z,18.62
2023-09-06T21:39:37.444Z,18.56
2023-09-06T21:44:39.594Z,18.41
2023-09-06T21:49:41.370Z,18.27
2023-09-06T21:54:43.137Z,18.13
2023-09-06T21:59:44.983Z,18.03
2023-09-06T22:04:46.723Z,17.88
2023-09-06T22:10:07.816Z,17.78
2023-09-06T22:15:28.532Z,17.72
2023-09-06T22:20:32.913Z,17.69
2023-09-06T22:25:35.400Z,17.57
2023-09-06T22:30:43.706Z,17.43
2023-09-06T22:35:45.625Z,17.40
2023-09-06T22:40:47.408Z,17.34
2023-09-06T22:45:51.286Z,17.38
2023-09-06T22:50:53.095Z,17.30
2023-09-06T22:55:54.903Z,17.15
2023-09-06T23:01:04.712Z,17.05
2023-09-06T23:06:11.451Z,16.98
2023-09-06T23:11:16.760Z,16.87
2023-09-06T23:16:18.528Z,16.79
2023-09-06T23:21:23.224Z,16.70
2023-09-06T23:26:32.463Z,16.68
2023-09-06T23:31:38.233Z,16.60
2023-09-06T23:36:40.188Z,16.57
2023-09-06T23:41:42.865Z,16.50
2023-09-06T23:46:44.772Z,16.36
2023-09-06T23:51:46.639Z,16.23
2023-09-06T23:56:48.402Z,16.17
